createdAt,value
2019-05-30T00:02:08.164Z,7.12
2019-05-30T00:04:37.571Z,7.17
2019-05-30T00:07:06.358Z,6.80
2019-05-30T00:09:36.181Z,10.00
2019-05-30T00:12:05.176Z,5.78
2019-05-30T00:14:34.038Z,5.25
2019-05-30T00:17:03.061Z,5.22
2019-05-30T00:19:33.964Z,4.17
2019-05-30T00:22:03.945Z,7.08
2019-05-30T00:24:32.862Z,7.12
2019-05-30T00:27:02.426Z,4.70
2019-05-30T00:29:31.447Z,6.47
2019-05-30T00:32:01.515Z,5.62
2019-05-30T00:34:30.429Z,7.78
2019-05-30T00:36:59.832Z,8.00
2019-05-30T00:39:28.810Z,6.37
2019-05-30T00:41:57.919Z,10.25
2019-05-30T00:44:26.816Z,4.15
2019-05-30T00:46:56.041Z,7.92
2019-05-30T00:49:25.125Z,15.23
2019-05-30T00:51:53.882Z,8.50
2019-05-30T00:54:22.706Z,5.60
2019-05-30T00:56:51.558Z,4.72
2019-05-30T00:59:20.446Z,5.10
2019-05-30T01:01:49.330Z,7.35
2019-05-30T01:04:18.376Z,4.20
2019-05-30T01:06:47.276Z,5.80
2019-05-30T01:09:16.172Z,3.90
2019-05-30T01:11:45.017Z,4.60
2019-05-30T01:14:13.807Z,2.33
2019-05-30T01:16:42.912Z,3.08
2019-05-30T01:19:11.988Z,5.15
2019-05-30T01:21:41.276Z,5.28
2019-05-30T01:24:10.060Z,4.25
2019-05-30T01:26:38.960Z,3.77
2019-05-30T01:29:07.877Z,6.92
2019-05-30T01:31:36.740Z,3.98
2019-05-30T01:34:05.917Z,5.17
2019-05-30T01:36:34.783Z,5.78
2019-05-30T01:39:05.837Z,6.20
2019-05-30T01:41:34.890Z,6.83
2019-05-30T01:44:03.972Z,6.15
2019-05-30T01:46:32.764Z,9.95
2019-05-30T01:49:02.310Z,4.85
2019-05-30T01:51:31.227Z,4.50
2019-05-30T01:54:00.518Z,7.03
2019-05-30T01:56:29.415Z,4.80
2019-05-30T01:58:58.633Z,3.60
2019-05-30T02:01:27.652Z,4.97
2019-05-30T02:03:56.510Z,5.10
2019-05-30T02:06:25.351Z,6.80
2019-05-30T02:08:54.174Z,4.58
2019-05-30T02:11:23.117Z,9.35
2019-05-30T02:13:52.170Z,5.47
2019-05-30T02:16:20.953Z,9.78
2019-05-30T02:18:49.853Z,6.65
2019-05-30T02:21:18.619Z,4.30
2019-05-30T02:23:47.392Z,4.60
2019-05-30T02:26:16.213Z,5.28
2019-05-30T02:28:45.073Z,5.58
2019-05-30T02:31:13.900Z,5.70
2019-05-30T02:33:42.674Z,5.72
2019-05-30T02:36:12.693Z,12.88
2019-05-30T02:38:41.808Z,6.85
2019-05-30T02:41:12.582Z,6.30
2019-05-30T02:43:41.194Z,10.03
2019-05-30T02:46:10.741Z,7.20
2019-05-30T02:48:57.343Z,8.28
2019-05-30T02:51:12.647Z,6.33
2019-05-30T02:53:41.475Z,8.73
2019-05-30T02:56:12.445Z,7.03
2019-05-30T02:58:40.669Z,7.08
2019-05-30T03:01:12.011Z,7.08
2019-05-30T03:03:39.930Z,7.12
2019-05-30T03:06:10.524Z,10.05
2019-05-30T03:08:39.163Z,23.40
2019-05-30T03:11:10.786Z,13.75
2019-05-30T03:13:38.409Z,23.27
2019-05-30T03:16:08.878Z,10.75
2019-05-30T03:18:37.725Z,8.45
2019-05-30T03:21:09.776Z,8.80
2019-05-30T03:23:37.094Z,6.33
2019-05-30T03:26:09.164Z,8.73
2019-05-30T03:28:36.415Z,8.95
2019-05-30T03:31:13.888Z,10.23
2019-05-30T03:33:42.161Z,9.48
2019-05-30T03:36:15.499Z,9.40
2019-05-30T03:38:39.122Z,10.95
2019-05-30T03:41:11.372Z,9.33
2019-05-30T03:43:38.755Z,9.23
2019-05-30T03:46:12.387Z,12.70
2019-05-30T03:48:43.528Z,11.68
2019-05-30T03:51:15.579Z,10.18
2019-05-30T03:53:44.353Z,11.40
2019-05-30T03:56:16.220Z,11.73
2019-05-30T03:59:00.452Z,9.03
2019-05-30T04:01:37.901Z,9.78
2019-05-30T04:04:24.593Z,8.40
2019-05-30T04:06:59.011Z,12.40
2019-05-30T04:09:30.008Z,9.20
2019-05-30T04:12:32.036Z,7.78
2019-05-30T04:15:10.570Z,8.80
2019-05-30T04:17:40.245Z,9.53
2019-05-30T04:20:09.818Z,8.08
2019-05-30T04:22:39.539Z,6.58
2019-05-30T04:25:08.612Z,6.67
2019-05-30T04:27:37.830Z,5.28
2019-05-30T04:30:09.848Z,12.15
2019-05-30T04:32:38.638Z,6.95
2019-05-30T04:35:08.068Z,7.72
2019-05-30T04:37:36.957Z,8.28
2019-05-30T04:40:08.536Z,6.90
2019-05-30T04:42:37.377Z,5.53
2019-05-30T04:45:07.487Z,5.20
2019-05-30T04:47:36.352Z,8.73
2019-05-30T04:50:10.136Z,7.50
2019-05-30T04:52:39.111Z,6.22
2019-05-30T04:55:08.179Z,7.90
2019-05-30T04:57:37.067Z,8.10
2019-05-30T05:00:07.326Z,7.00
2019-05-30T05:02:36.153Z,8.63
2019-05-30T05:05:07.856Z,8.65
2019-05-30T05:07:36.696Z,7.33
2019-05-30T05:10:07.679Z,9.68
2019-05-30T05:12:36.462Z,6.47
2019-05-30T05:15:06.638Z,8.15
2019-05-30T05:17:35.410Z,9.88
2019-05-30T05:20:08.873Z,10.80
2019-05-30T05:22:37.658Z,6.62
2019-05-30T05:25:09.526Z,7.37
2019-05-30T05:27:38.455Z,8.35
2019-05-30T05:30:08.451Z,8.93
2019-05-30T05:32:37.257Z,7.85
2019-05-30T05:35:08.015Z,10.93
2019-05-30T05:37:36.832Z,9.80
2019-05-30T05:40:07.014Z,8.00
2019-05-30T05:42:35.846Z,10.72
2019-05-30T05:45:10.663Z,10.30
2019-05-30T05:47:39.550Z,6.15
2019-05-30T05:50:09.300Z,10.38
2019-05-30T05:52:38.199Z,10.40
2019-05-30T05:55:07.374Z,12.00
2019-05-30T05:57:36.270Z,8.58
2019-05-30T06:00:07.186Z,9.73
2019-05-30T06:02:36.064Z,10.75
2019-05-30T06:05:06.405Z,9.18
2019-05-30T06:07:35.315Z,8.73
2019-05-30T06:10:05.282Z,9.58
2019-05-30T06:12:34.047Z,10.25
2019-05-30T06:15:03.047Z,10.53
2019-05-30T06:17:31.936Z,9.58
2019-05-30T06:20:00.861Z,10.63
2019-05-30T06:22:29.672Z,10.58
2019-05-30T06:24:58.503Z,11.28
2019-05-30T06:27:28.078Z,10.95
2019-05-30T06:29:56.961Z,10.95
2019-05-30T06:32:26.762Z,10.98
2019-05-30T06:34:55.610Z,8.85
2019-05-30T06:37:25.210Z,10.48
2019-05-30T06:39:54.064Z,10.53
2019-05-30T06:42:23.660Z,8.78
2019-05-30T06:44:52.549Z,10.88
2019-05-30T06:47:22.196Z,9.75
2019-05-30T06:49:51.137Z,12.45
2019-05-30T06:52:20.875Z,11.35
2019-05-30T06:54:49.835Z,13.95
2019-05-30T06:57:18.625Z,12.23
2019-05-30T06:59:47.462Z,10.05
2019-05-30T07:02:16.220Z,11.48
2019-05-30T07:04:51.465Z,15.25
2019-05-30T07:07:15.665Z,12.73
2019-05-30T07:09:44.725Z,12.37
2019-05-30T07:12:13.641Z,14.20
2019-05-30T07:14:42.558Z,16.95
2019-05-30T07:17:11.895Z,13.55
2019-05-30T07:19:40.712Z,12.47
2019-05-30T07:22:09.567Z,13.58
2019-05-30T07:24:38.450Z,14.45
2019-05-30T07:27:07.241Z,14.18
2019-05-30T07:29:36.059Z,12.82
2019-05-30T07:32:04.919Z,13.45
2019-05-30T07:34:34.275Z,13.88
2019-05-30T07:37:03.295Z,12.70
2019-05-30T07:39:35.726Z,11.60
2019-05-30T07:42:06.493Z,12.03
2019-05-30T07:44:35.008Z,15.90
2019-05-30T07:47:03.944Z,12.43
2019-05-30T07:49:32.772Z,11.93
2019-05-30T07:52:01.582Z,12.63
2019-05-30T07:54:30.971Z,12.75
2019-05-30T07:56:59.933Z,9.20
2019-05-30T07:59:28.776Z,11.25
2019-05-30T08:01:57.696Z,11.78
2019-05-30T08:04:27.421Z,13.35
2019-05-30T08:06:56.388Z,12.53
2019-05-30T08:09:25.271Z,11.03
2019-05-30T08:11:54.075Z,11.65
2019-05-30T08:14:22.963Z,9.93
2019-05-30T08:16:51.828Z,9.93
2019-05-30T08:19:20.705Z,10.88
2019-05-30T08:21:49.558Z,10.68
2019-05-30T08:24:18.384Z,10.05
2019-05-30T08:26:47.157Z,10.63
2019-05-30T08:29:15.973Z,12.30
2019-05-30T08:31:44.826Z,11.55
2019-05-30T08:34:13.642Z,11.60
2019-05-30T08:36:42.419Z,11.33
2019-05-30T08:39:11.295Z,11.43
2019-05-30T08:41:40.035Z,13.00
2019-05-30T08:44:08.831Z,13.20
2019-05-30T08:46:37.920Z,11.28
2019-05-30T08:49:06.835Z,11.33
2019-05-30T08:51:36.256Z,11.08
2019-05-30T08:54:05.402Z,13.58
2019-05-30T08:56:34.538Z,14.03
2019-05-30T08:59:03.519Z,13.05
2019-05-30T09:01:32.917Z,12.88
2019-05-30T09:04:01.724Z,9.88
2019-05-30T09:06:30.562Z,12.37
2019-05-30T09:08:59.390Z,9.43
2019-05-30T09:11:28.230Z,11.35
2019-05-30T09:13:57.140Z,8.68
2019-05-30T09:16:25.907Z,9.03
2019-05-30T09:18:54.743Z,12.45
2019-05-30T09:21:23.565Z,8.83
2019-05-30T09:23:52.357Z,10.00
2019-05-30T09:26:21.213Z,9.50
2019-05-30T09:28:50.219Z,8.63
2019-05-30T09:31:19.637Z,11.68
2019-05-30T09:33:48.686Z,7.90
2019-05-30T09:36:17.621Z,6.90
2019-05-30T09:38:47.425Z,9.95
2019-05-30T09:41:16.434Z,7.55
2019-05-30T09:43:46.448Z,7.92
2019-05-30T09:46:15.334Z,9.00
2019-05-30T09:48:44.835Z,8.60
2019-05-30T09:51:13.755Z,8.25
2019-05-30T09:53:43.796Z,6.00
2019-05-30T09:56:12.830Z,7.80
2019-05-30T09:58:42.744Z,5.95
2019-05-30T10:01:12.070Z,7.80
2019-05-30T10:03:42.016Z,5.50
2019-05-30T10:06:11.398Z,10.03
2019-05-30T10:08:40.295Z,5.12
2019-05-30T10:11:09.221Z,4.75
2019-05-30T10:13:38.099Z,6.03
2019-05-30T10:16:06.906Z,3.87
2019-05-30T10:18:35.802Z,3.83
2019-05-30T10:21:04.989Z,3.72
2019-05-30T10:23:33.879Z,4.80
2019-05-30T10:26:02.665Z,5.05
2019-05-30T10:28:31.556Z,6.10
2019-05-30T10:31:00.426Z,5.08
2019-05-30T10:33:29.313Z,5.83
2019-05-30T10:35:58.174Z,8.03
2019-05-30T10:38:26.996Z,6.25
2019-05-30T10:40:56.071Z,4.47
2019-05-30T10:43:25.004Z,4.25
2019-05-30T10:45:53.837Z,6.28
2019-05-30T10:48:22.631Z,8.45
2019-05-30T10:50:52.284Z,3.33
2019-05-30T10:53:21.084Z,3.37
2019-05-30T10:55:50.149Z,4.08
2019-05-30T10:58:19.073Z,4.92
2019-05-30T11:00:52.998Z,5.28
2019-05-30T11:03:23.871Z,4.45
2019-05-30T11:06:19.527Z,4.67
2019-05-30T11:08:50.623Z,6.28
2019-05-30T11:11:19.541Z,3.67
2019-05-30T11:13:48.970Z,3.47
2019-05-30T11:16:17.895Z,3.58
2019-05-30T11:18:47.499Z,7.00
2019-05-30T11:21:17.736Z,3.65
2019-05-30T11:23:46.509Z,3.10
2019-05-30T11:26:15.359Z,2.67
2019-05-30T11:28:44.166Z,3.02
2019-05-30T11:31:12.992Z,5.78
2019-05-30T11:33:41.769Z,3.10
2019-05-30T11:36:10.534Z,2.20
2019-05-30T11:38:39.403Z,3.52
2019-05-30T11:41:08.243Z,3.35
2019-05-30T11:43:37.137Z,3.40
2019-05-30T11:46:05.911Z,2.33
2019-05-30T11:48:34.735Z,4.60
2019-05-30T11:51:03.530Z,2.85
2019-05-30T11:53:32.376Z,1.95
2019-05-30T11:56:01.273Z,2.50
2019-05-30T11:58:30.043Z,2.72
2019-05-30T12:00:58.961Z,3.00
2019-05-30T12:03:29.531Z,5.20
2019-05-30T12:05:58.688Z,3.85
2019-05-30T12:08:27.625Z,4.20
2019-05-30T12:10:57.170Z,3.45
2019-05-30T12:13:26.196Z,5.03
2019-05-30T12:15:55.407Z,7.30
2019-05-30T12:18:24.349Z,4.33
2019-05-30T12:20:53.587Z,3.37
2019-05-30T12:23:22.552Z,3.10
2019-05-30T12:25:51.961Z,3.52
2019-05-30T12:28:20.970Z,3.50
2019-05-30T12:30:56.858Z,4.42
2019-05-30T12:33:20.210Z,3.50
2019-05-30T12:35:49.039Z,5.15
2019-05-30T12:38:17.906Z,3.62
2019-05-30T12:40:46.757Z,3.60
2019-05-30T12:43:15.595Z,4.15
2019-05-30T12:45:44.372Z,2.35
2019-05-30T12:48:13.272Z,3.15
2019-05-30T12:50:42.126Z,2.67
2019-05-30T12:53:10.932Z,3.02
2019-05-30T12:55:39.724Z,4.20
2019-05-30T12:58:08.606Z,2.22
2019-05-30T13:00:38.357Z,2.35
2019-05-30T13:03:07.428Z,1.72
2019-05-30T13:05:36.301Z,2.33
2019-05-30T13:08:17.356Z,6.20
2019-05-30T13:10:35.753Z,3.12
2019-05-30T13:13:06.076Z,1.52
2019-05-30T13:15:35.061Z,2.52
2019-05-30T13:18:03.915Z,2.33
2019-05-30T13:20:32.983Z,2.58
2019-05-30T13:23:02.736Z,7.30
2019-05-30T13:25:31.691Z,1.67
2019-05-30T13:28:04.646Z,2.92
2019-05-30T13:30:31.223Z,3.72
2019-05-30T13:33:00.872Z,1.70
2019-05-30T13:35:29.764Z,2.77
2019-05-30T13:37:59.077Z,2.47
2019-05-30T13:40:27.969Z,2.37
2019-05-30T13:42:57.786Z,1.92
2019-05-30T13:45:26.711Z,2.35
2019-05-30T13:47:55.557Z,1.10
2019-05-30T13:50:24.411Z,3.20
2019-05-30T13:52:53.277Z,3.42
2019-05-30T13:55:22.167Z,2.20
2019-05-30T13:57:50.946Z,3.02
2019-05-30T14:00:20.050Z,2.27
2019-05-30T14:02:48.914Z,4.22
2019-05-30T14:05:18.081Z,2.62
2019-05-30T14:07:46.965Z,1.65
2019-05-30T14:10:16.070Z,1.65
2019-05-30T14:12:44.884Z,1.82
2019-05-30T14:15:15.510Z,2.45
2019-05-30T14:17:44.427Z,1.32
2019-05-30T14:20:15.143Z,2.27
2019-05-30T14:22:44.007Z,2.10
2019-05-30T14:25:13.799Z,1.32
2019-05-30T14:27:42.662Z,1.05
2019-05-30T14:30:13.274Z,1.52
2019-05-30T14:32:42.214Z,2.27
2019-05-30T14:35:13.872Z,3.30
2019-05-30T14:37:43.067Z,1.10
2019-05-30T14:40:13.550Z,3.77
2019-05-30T14:42:42.439Z,5.70
2019-05-30T14:45:14.557Z,5.50
2019-05-30T14:47:43.717Z,2.25
2019-05-30T14:50:15.526Z,2.98
2019-05-30T14:52:44.437Z,2.30
2019-05-30T14:55:13.552Z,2.65
2019-05-30T14:57:42.423Z,1.87
2019-05-30T15:00:17.660Z,2.33
2019-05-30T15:02:46.759Z,2.27
2019-05-30T15:05:16.246Z,2.77
2019-05-30T15:07:45.092Z,1.25
2019-05-30T15:10:17.046Z,1.15
2019-05-30T15:12:46.088Z,3.55
2019-05-30T15:15:18.165Z,3.55
2019-05-30T15:17:46.782Z,2.98
2019-05-30T15:20:16.009Z,5.83
2019-05-30T15:22:44.916Z,2.25
2019-05-30T15:25:17.375Z,2.47
2019-05-30T15:27:44.730Z,4.45
2019-05-30T15:30:14.788Z,1.65
2019-05-30T15:32:43.861Z,2.30
2019-05-30T15:35:12.912Z,2.05
2019-05-30T15:37:41.721Z,3.67
2019-05-30T15:40:11.509Z,1.45
2019-05-30T15:42:40.352Z,2.60
2019-05-30T15:45:10.045Z,2.55
2019-05-30T15:47:39.130Z,2.65
2019-05-30T15:50:10.497Z,2.20
2019-05-30T15:52:39.767Z,2.83
2019-05-30T15:55:09.328Z,1.67
2019-05-30T15:57:38.315Z,3.70
2019-05-30T16:00:11.903Z,2.37
2019-05-30T16:02:41.087Z,2.17
2019-05-30T16:05:10.724Z,1.62
2019-05-30T16:07:39.556Z,2.92
2019-05-30T16:10:09.091Z,1.77
2019-05-30T16:12:37.946Z,3.52
2019-05-30T16:15:08.850Z,1.75
2019-05-30T16:17:37.618Z,3.60
2019-05-30T16:20:06.834Z,4.53
2019-05-30T16:22:35.678Z,3.42
2019-05-30T16:25:06.390Z,3.87
2019-05-30T16:27:35.258Z,2.47
2019-05-30T16:30:08.496Z,4.75
2019-05-30T16:32:37.560Z,2.50
2019-05-30T16:35:07.143Z,2.42
2019-05-30T16:37:35.962Z,3.65
2019-05-30T16:40:09.446Z,5.97
2019-05-30T16:42:38.223Z,4.60
2019-05-30T16:45:09.454Z,3.25
2019-05-30T16:47:38.292Z,4.60
2019-05-30T16:50:08.780Z,2.35
2019-05-30T16:52:37.628Z,4.53
2019-05-30T16:55:08.314Z,3.35
2019-05-30T16:57:37.080Z,4.22
2019-05-30T17:00:08.133Z,3.02
2019-05-30T17:02:36.970Z,4.70
2019-05-30T17:05:07.473Z,12.40
2019-05-30T17:07:36.314Z,7.78
2019-05-30T17:10:22.038Z,5.67
2019-05-30T17:12:40.161Z,3.65
2019-05-30T17:15:09.532Z,5.22
2019-05-30T17:17:38.401Z,3.92
2019-05-30T17:20:08.395Z,3.40
2019-05-30T17:22:37.249Z,5.95
2019-05-30T17:25:07.519Z,6.17
2019-05-30T17:27:36.383Z,7.20
2019-05-30T17:30:07.143Z,4.33
2019-05-30T17:32:35.925Z,5.67
2019-05-30T17:35:07.208Z,3.27
2019-05-30T17:37:36.047Z,3.37
2019-05-30T17:40:08.482Z,4.50
2019-05-30T17:42:37.518Z,3.87
2019-05-30T17:45:11.054Z,4.25
2019-05-30T17:47:39.881Z,4.95
2019-05-30T17:50:09.946Z,4.17
2019-05-30T17:52:38.855Z,8.40
2019-05-30T17:55:08.344Z,5.83
2019-05-30T17:57:37.359Z,5.55
2019-05-30T18:00:12.011Z,3.47
2019-05-30T18:02:41.792Z,4.03
2019-05-30T18:05:11.257Z,4.83
2019-05-30T18:07:40.186Z,5.70
2019-05-30T18:10:09.440Z,5.10
2019-05-30T18:12:38.218Z,14.15
2019-05-30T18:15:10.044Z,6.37
2019-05-30T18:17:38.889Z,4.33
2019-05-30T18:20:10.026Z,7.65
2019-05-30T18:22:38.840Z,6.97
2019-05-30T18:25:09.022Z,8.63
2019-05-30T18:27:37.911Z,5.37
2019-05-30T18:30:09.075Z,3.85
2019-05-30T18:32:37.959Z,6.22
2019-05-30T18:35:07.452Z,3.37
2019-05-30T18:37:36.751Z,4.05
2019-05-30T18:40:09.109Z,7.10
2019-05-30T18:42:37.893Z,4.80
2019-05-30T18:45:11.149Z,7.58
2019-05-30T18:50:09.102Z,4.47
2019-05-30T18:52:37.953Z,4.60
2019-05-30T18:55:09.201Z,6.33
2019-05-30T18:57:38.015Z,5.62
2019-05-30T19:00:11.396Z,7.97
2019-05-30T19:02:40.246Z,5.42
2019-05-30T19:05:09.825Z,4.53
2019-05-30T19:07:38.647Z,4.92
2019-05-30T19:10:08.028Z,5.20
2019-05-30T19:12:36.850Z,6.80
2019-05-30T19:15:07.127Z,4.28
2019-05-30T19:17:36.108Z,10.32
2019-05-30T19:20:06.970Z,8.18
2019-05-30T19:22:36.464Z,4.85
2019-05-30T19:25:08.869Z,6.67
2019-05-30T19:27:38.606Z,6.50
2019-05-30T19:30:15.836Z,4.78
2019-05-30T19:32:44.844Z,7.05
2019-05-30T19:35:13.644Z,14.05
2019-05-30T19:37:42.432Z,7.12
2019-05-30T19:40:12.942Z,6.03
2019-05-30T19:42:43.346Z,4.87
2019-05-30T19:45:13.653Z,5.20
2019-05-30T19:47:42.448Z,7.45
2019-05-30T19:50:11.684Z,5.30
2019-05-30T19:52:40.638Z,6.40
2019-05-30T19:55:09.529Z,7.97
2019-05-30T19:57:38.300Z,5.03
2019-05-30T20:00:09.185Z,9.83
2019-05-30T20:02:38.417Z,5.58
2019-05-30T20:05:07.862Z,8.80
2019-05-30T20:07:36.887Z,5.53
2019-05-30T20:10:07.226Z,6.90
2019-05-30T20:12:37.048Z,4.95
2019-05-30T20:15:10.360Z,6.00
2019-05-30T20:17:39.798Z,8.05
2019-05-30T20:20:09.579Z,7.72
2019-05-30T20:22:38.383Z,4.47
2019-05-30T20:25:08.728Z,6.67
2019-05-30T20:27:38.822Z,6.92
2019-05-30T20:30:10.330Z,8.03
2019-05-30T20:32:40.714Z,6.62
2019-05-30T20:35:10.052Z,6.47
2019-05-30T20:37:38.851Z,5.83
2019-05-30T20:40:09.254Z,5.33
2019-05-30T20:42:38.980Z,4.70
2019-05-30T20:45:10.025Z,3.47
2019-05-30T20:47:40.743Z,6.78
2019-05-30T20:50:14.161Z,4.50
2019-05-30T20:52:44.109Z,4.12
2019-05-30T20:55:12.523Z,4.95
2019-05-30T20:57:42.475Z,6.15
2019-05-30T21:00:13.321Z,3.95
2019-05-30T21:02:43.701Z,3.92
2019-05-30T21:05:13.149Z,4.22
2019-05-30T21:07:44.304Z,6.50
2019-05-30T21:10:13.948Z,2.70
2019-05-30T21:12:46.964Z,3.42
2019-05-30T21:15:15.255Z,4.67
2019-05-30T21:17:46.367Z,3.87
2019-05-30T21:20:16.045Z,3.98
2019-05-30T21:22:44.931Z,8.13
2019-05-30T21:25:14.018Z,4.40
2019-05-30T21:27:42.980Z,6.33
2019-05-30T21:30:12.679Z,7.28
2019-05-30T21:32:42.247Z,5.75
2019-05-30T21:35:12.409Z,4.55
2019-05-30T21:37:41.746Z,9.10
2019-05-30T21:40:10.793Z,5.15
2019-05-30T21:42:55.625Z,6.50
2019-05-30T21:45:10.383Z,3.50
2019-05-30T21:47:39.202Z,5.08
2019-05-30T21:50:08.370Z,3.77
2019-05-30T21:52:37.139Z,5.40
2019-05-30T21:55:07.363Z,4.67
2019-05-30T21:57:36.201Z,3.87
2019-05-30T22:00:13.289Z,8.48
2019-05-30T22:02:44.493Z,21.85
2019-05-30T22:05:13.660Z,9.80
2019-05-30T22:07:43.054Z,4.33
2019-05-30T22:10:12.062Z,4.47
2019-05-30T22:12:41.448Z,3.20
2019-05-30T22:15:10.467Z,5.85
2019-05-30T22:17:39.288Z,6.60
2019-05-30T22:20:08.426Z,4.25
2019-05-30T22:22:37.337Z,4.62
2019-05-30T22:25:07.341Z,5.83
2019-05-30T22:27:36.177Z,5.60
2019-05-30T22:30:06.635Z,5.17
2019-05-30T22:32:35.495Z,6.65
2019-05-30T22:35:06.286Z,4.47
2019-05-30T22:37:35.076Z,7.92
2019-05-30T22:40:05.911Z,6.47
2019-05-30T22:42:34.692Z,3.95
2019-05-30T22:45:04.214Z,6.75
2019-05-30T22:47:32.990Z,5.12
2019-05-30T22:50:01.802Z,4.70
2019-05-30T22:52:30.622Z,5.85
2019-05-30T22:54:59.421Z,3.98
2019-05-30T22:57:28.246Z,6.22
2019-05-30T22:59:57.152Z,5.22
2019-05-30T23:02:25.949Z,5.08
2019-05-30T23:04:54.719Z,4.75
2019-05-30T23:07:23.490Z,6.37
2019-05-30T23:09:52.303Z,6.08
2019-05-30T23:12:21.078Z,4.37
2019-05-30T23:14:50.066Z,5.37
2019-05-30T23:17:19.003Z,4.60
2019-05-30T23:19:48.598Z,7.65
2019-05-30T23:22:17.473Z,4.75
2019-05-30T23:24:47.161Z,7.50
2019-05-30T23:27:16.190Z,3.92
2019-05-30T23:29:44.996Z,6.47
2019-05-30T23:32:13.828Z,7.40
2019-05-30T23:34:42.674Z,21.62
2019-05-30T23:37:11.484Z,9.45
2019-05-30T23:39:40.334Z,5.80
2019-05-30T23:42:09.175Z,7.35
2019-05-30T23:44:37.997Z,5.53
2019-05-30T23:47:06.900Z,5.00
2019-05-30T23:49:35.830Z,5.05
2019-05-30T23:52:04.684Z,8.63
2019-05-30T23:54:33.571Z,5.08
2019-05-30T23:57:02.478Z,4.65
2019-05-30T23:59:31.293Z,5.58
